createdAt,value
2018-03-11T00:02:27.019Z,78.21
2018-03-11T00:04:54.623Z,78.05
2018-03-11T00:07:22.261Z,78.01
2018-03-11T00:09:49.860Z,78.27
2018-03-11T00:12:17.719Z,78.01
2018-03-11T00:14:45.328Z,78.02
2018-03-11T00:17:12.934Z,77.92
2018-03-11T00:19:40.572Z,77.79
2018-03-11T00:22:08.178Z,77.97
2018-03-11T00:24:35.805Z,77.73
2018-03-11T00:27:03.408Z,77.85
2018-03-11T00:29:31.461Z,77.74
2018-03-11T00:31:59.056Z,77.58
2018-03-11T00:34:26.665Z,77.64
2018-03-11T00:36:54.297Z,77.70
2018-03-11T00:39:21.904Z,78.50
2018-03-11T00:41:49.538Z,77.68
2018-03-11T00:44:17.149Z,78.40
2018-03-11T00:46:44.790Z,78.81
2018-03-11T00:49:12.400Z,79.00
2018-03-11T00:51:40.011Z,78.63
2018-03-11T00:54:07.637Z,79.15
2018-03-11T00:56:35.243Z,78.73
2018-03-11T00:59:02.862Z,78.54
2018-03-11T01:01:30.466Z,78.47
2018-03-11T01:03:58.215Z,79.05
2018-03-11T01:06:25.816Z,78.82
2018-03-11T01:08:53.583Z,79.02
2018-03-11T01:11:21.216Z,79.30
2018-03-11T01:13:48.877Z,79.33
2018-03-11T01:16:16.500Z,79.02
2018-03-11T01:18:44.113Z,79.27
2018-03-11T01:21:12.056Z,79.39
2018-03-11T01:23:39.672Z,79.06
2018-03-11T01:26:07.278Z,79.07
2018-03-11T01:28:34.903Z,79.25
2018-03-11T01:31:02.530Z,78.83
2018-03-11T01:33:30.162Z,79.20
2018-03-11T01:35:57.770Z,79.40
2018-03-11T01:38:25.392Z,79.32
2018-03-11T01:40:53.023Z,79.08
2018-03-11T01:43:20.629Z,79.34
2018-03-11T01:45:48.268Z,79.48
2018-03-11T01:48:15.869Z,79.32
2018-03-11T01:50:43.488Z,79.47
2018-03-11T01:53:11.096Z,78.99
2018-03-11T01:55:39.019Z,78.74
2018-03-11T01:58:06.630Z,78.72
2018-03-11T02:00:34.257Z,78.56
2018-03-11T02:03:01.878Z,78.60
2018-03-11T02:05:29.484Z,78.55
2018-03-11T02:07:57.140Z,78.35
2018-03-11T02:10:24.747Z,78.76
2018-03-11T02:12:52.696Z,79.22
2018-03-11T02:15:20.284Z,78.79
2018-03-11T02:17:47.882Z,78.87
2018-03-11T02:20:15.493Z,78.53
2018-03-11T02:22:43.091Z,78.79
2018-03-11T02:25:10.733Z,78.93
2018-03-11T02:27:38.328Z,79.22
2018-03-11T02:30:06.145Z,79.36
2018-03-11T02:32:33.756Z,79.51
2018-03-11T02:35:01.369Z,79.51
2018-03-11T02:37:29.007Z,79.64
2018-03-11T02:39:56.616Z,80.14
2018-03-11T02:42:24.239Z,80.87
2018-03-11T02:44:51.850Z,80.10
2018-03-11T02:47:19.480Z,79.94
2018-03-11T02:49:47.145Z,80.08
2018-03-11T02:52:14.737Z,79.73
2018-03-11T02:54:42.360Z,79.53
2018-03-11T02:57:09.959Z,79.54
2018-03-11T02:59:37.582Z,79.22
2018-03-11T03:02:05.307Z,79.14
2018-03-11T03:04:32.958Z,79.29
2018-03-11T03:07:00.576Z,78.96
2018-03-11T03:09:28.180Z,78.92
2018-03-11T03:11:55.835Z,79.20
2018-03-11T03:14:23.444Z,78.95
2018-03-11T03:16:51.068Z,78.83
2018-03-11T03:19:18.663Z,79.35
2018-03-11T03:21:46.291Z,79.20
2018-03-11T03:24:13.888Z,79.45
2018-03-11T03:26:41.507Z,79.50
2018-03-11T03:29:09.130Z,79.82
2018-03-11T03:31:36.725Z,80.25
2018-03-11T03:34:04.395Z,80.43
2018-03-11T03:36:32.007Z,79.84
2018-03-11T03:38:59.649Z,79.38
2018-03-11T03:41:27.245Z,79.37
2018-03-11T03:43:54.849Z,79.02
2018-03-11T03:46:22.468Z,78.87
2018-03-11T03:48:50.059Z,79.03
2018-03-11T03:51:17.680Z,79.01
2018-03-11T03:53:45.271Z,79.76
2018-03-11T03:56:12.860Z,79.42
2018-03-11T03:58:40.503Z,79.38
2018-03-11T04:01:08.099Z,79.05
2018-03-11T04:03:35.828Z,78.90
2018-03-11T04:06:03.422Z,78.83
2018-03-11T04:08:31.038Z,78.69
2018-03-11T04:10:58.660Z,78.80
2018-03-11T04:13:26.257Z,78.94
2018-03-11T04:15:54.108Z,78.71
2018-03-11T04:18:21.708Z,79.03
2018-03-11T04:20:49.307Z,79.41
2018-03-11T04:23:16.925Z,79.49
2018-03-11T04:25:44.621Z,79.42
2018-03-11T04:28:12.232Z,79.11
2018-03-11T04:30:39.834Z,78.81
2018-03-11T04:33:07.448Z,78.54
2018-03-11T04:35:35.044Z,78.64
2018-03-11T04:38:02.660Z,78.68
2018-03-11T04:40:30.257Z,78.64
2018-03-11T04:42:57.896Z,78.83
2018-03-11T04:45:25.497Z,78.96
2018-03-11T04:47:53.088Z,78.48
2018-03-11T04:50:20.710Z,78.38
2018-03-11T04:52:48.304Z,78.11
2018-03-11T04:55:15.927Z,78.04
2018-03-11T04:57:43.521Z,78.19
2018-03-11T05:00:11.188Z,78.18
2018-03-11T05:02:38.786Z,77.96
2018-03-11T05:05:06.382Z,77.91
2018-03-11T05:07:34.000Z,77.78
2018-03-11T05:10:01.596Z,78.23
2018-03-11T05:12:29.211Z,78.14
2018-03-11T05:14:56.810Z,78.74
2018-03-11T05:17:24.575Z,78.85
2018-03-11T05:19:52.178Z,79.06
2018-03-11T05:22:19.765Z,79.01
2018-03-11T05:24:47.390Z,78.64
2018-03-11T05:27:14.985Z,78.53
2018-03-11T05:29:42.589Z,78.62
2018-03-11T05:32:10.204Z,78.20
2018-03-11T05:34:38.105Z,78.24
2018-03-11T05:37:05.693Z,78.10
2018-03-11T05:39:33.284Z,77.93
2018-03-11T05:42:00.904Z,77.55
2018-03-11T05:44:28.563Z,77.41
2018-03-11T05:46:56.144Z,77.90
2018-03-11T05:49:23.734Z,77.41
2018-03-11T05:51:51.529Z,77.03
2018-03-11T05:54:19.127Z,77.37
2018-03-11T05:56:46.716Z,77.45
2018-03-11T05:59:14.332Z,77.13
2018-03-11T06:01:41.936Z,76.93
2018-03-11T06:04:09.551Z,77.00
2018-03-11T06:06:37.142Z,77.31
2018-03-11T06:09:04.816Z,77.06
2018-03-11T06:11:32.408Z,76.98
2018-03-11T06:13:59.995Z,76.68
2018-03-11T06:16:27.614Z,76.88
2018-03-11T06:18:55.207Z,76.70
2018-03-11T06:21:22.815Z,76.74
2018-03-11T06:23:50.413Z,76.31
2018-03-11T06:26:18.042Z,76.22
2018-03-11T06:28:45.636Z,76.25
2018-03-11T06:31:13.233Z,75.57
2018-03-11T06:33:40.856Z,75.84
2018-03-11T06:36:08.453Z,75.71
2018-03-11T06:38:36.068Z,75.80
2018-03-11T06:41:03.656Z,75.52
2018-03-11T06:43:31.676Z,75.31
2018-03-11T06:45:59.280Z,75.21
2018-03-11T06:48:26.875Z,75.66
2018-03-11T06:50:54.487Z,75.41
2018-03-11T06:53:22.074Z,75.58
2018-03-11T06:55:49.689Z,75.42
2018-03-11T06:58:17.296Z,75.53
2018-03-11T07:00:45.121Z,75.38
2018-03-11T07:03:12.712Z,75.25
2018-03-11T07:05:40.308Z,74.17
2018-03-11T07:08:07.920Z,74.18
2018-03-11T07:10:35.511Z,74.17
2018-03-11T07:13:03.136Z,74.76
2018-03-11T07:15:30.725Z,74.46
2018-03-11T07:17:58.519Z,74.63
2018-03-11T07:20:26.121Z,74.82
2018-03-11T07:22:53.724Z,74.98
2018-03-11T07:25:21.346Z,74.29
2018-03-11T07:27:48.960Z,74.37
2018-03-11T07:30:16.597Z,74.69
2018-03-11T07:32:44.201Z,73.62
2018-03-11T07:35:12.018Z,73.32
2018-03-11T07:37:39.612Z,72.60
2018-03-11T07:40:07.203Z,72.48
2018-03-11T07:42:34.860Z,71.53
2018-03-11T07:45:02.456Z,70.64
2018-03-11T07:47:30.318Z,70.92
2018-03-11T07:49:57.915Z,70.91
2018-03-11T07:52:25.516Z,70.16
2018-03-11T07:54:53.136Z,70.59
2018-03-11T07:57:20.743Z,70.29
2018-03-11T07:59:48.371Z,70.11
2018-03-11T08:02:15.966Z,69.72
2018-03-11T08:04:43.860Z,68.70
2018-03-11T08:07:11.452Z,69.24
2018-03-11T08:09:39.048Z,68.84
2018-03-11T08:12:06.660Z,67.96
2018-03-11T08:14:34.315Z,67.66
2018-03-11T08:17:01.897Z,67.63
2018-03-11T08:19:29.488Z,66.98
2018-03-11T08:21:57.636Z,67.07
2018-03-11T08:24:25.236Z,66.50
2018-03-11T08:26:52.826Z,67.17
2018-03-11T08:29:20.436Z,65.14
2018-03-11T08:31:48.036Z,64.17
2018-03-11T08:36:42.562Z,62.65
2018-03-11T08:39:10.631Z,62.76
2018-03-11T08:41:38.229Z,63.27
2018-03-11T08:44:05.808Z,61.97
2018-03-11T08:46:33.433Z,62.50
2018-03-11T08:49:01.124Z,61.75
2018-03-11T08:51:28.748Z,60.93
2018-03-11T08:53:56.396Z,61.19
2018-03-11T08:56:24.053Z,60.08
2018-03-11T08:58:51.648Z,60.46
2018-03-11T09:01:19.257Z,59.92
2018-03-11T09:03:46.864Z,60.07
2018-03-11T09:06:14.540Z,59.11
2018-03-11T09:08:42.146Z,59.45
2018-03-11T09:11:09.770Z,58.90
2018-03-11T09:13:37.394Z,58.71
2018-03-11T09:16:04.989Z,58.83
2018-03-11T09:18:32.585Z,57.90
2018-03-11T09:21:00.192Z,58.53
2018-03-11T09:23:27.784Z,58.13
2018-03-11T09:25:55.396Z,58.70
2018-03-11T09:28:22.983Z,58.79
2018-03-11T09:30:50.819Z,59.15
2018-03-11T09:33:18.443Z,58.25
2018-03-11T09:35:46.031Z,57.99
2018-03-11T09:38:13.687Z,57.97
2018-03-11T09:40:41.417Z,57.02
2018-03-11T09:43:09.025Z,56.74
2018-03-11T09:45:36.611Z,55.77
2018-03-11T09:48:04.452Z,55.07
2018-03-11T09:50:32.050Z,55.27
2018-03-11T09:52:59.634Z,54.97
2018-03-11T09:55:27.240Z,55.26
2018-03-11T09:57:54.835Z,55.24
2018-03-11T10:00:22.464Z,54.72
2018-03-11T10:02:50.049Z,54.24
2018-03-11T10:05:17.639Z,53.50
2018-03-11T10:07:45.267Z,52.55
2018-03-11T10:10:12.884Z,52.97
2018-03-11T10:12:40.544Z,52.42
2018-03-11T10:15:08.231Z,52.53
2018-03-11T10:17:35.821Z,52.99
2018-03-11T10:20:03.475Z,52.04
2018-03-11T10:22:31.173Z,51.28
2018-03-11T10:24:58.785Z,50.00
2018-03-11T10:27:26.397Z,49.45
2018-03-11T10:29:54.012Z,49.44
2018-03-11T10:32:21.617Z,49.48
2018-03-11T10:34:49.208Z,49.79
2018-03-11T10:37:16.819Z,49.09
2018-03-11T10:39:44.420Z,49.28
2018-03-11T10:42:12.028Z,49.32
2018-03-11T10:44:39.623Z,48.59
2018-03-11T10:47:07.396Z,48.45
2018-03-11T10:49:34.985Z,47.83
2018-03-11T10:52:02.583Z,47.83
2018-03-11T10:54:30.193Z,47.44
2018-03-11T10:56:57.803Z,47.48
2018-03-11T10:59:25.423Z,48.11
2018-03-11T11:01:58.556Z,47.79
2018-03-11T11:07:28.686Z,48.17
2018-03-11T11:09:56.288Z,47.50
2018-03-11T11:12:23.871Z,47.43
2018-03-11T11:14:51.481Z,47.11
2018-03-11T11:17:19.087Z,47.95
2018-03-11T11:19:46.709Z,47.45
2018-03-11T11:22:14.320Z,47.26
2018-03-11T11:24:41.904Z,48.18
2018-03-11T11:27:09.531Z,47.43
2018-03-11T11:29:37.115Z,48.80
2018-03-11T11:32:04.696Z,47.94
2018-03-11T11:34:32.304Z,47.26
2018-03-11T11:36:59.890Z,46.77
2018-03-11T11:39:27.501Z,46.75
2018-03-11T11:41:55.108Z,47.16
2018-03-11T11:44:23.111Z,46.82
2018-03-11T11:46:50.700Z,46.95
2018-03-11T11:49:18.292Z,46.39
2018-03-11T11:51:45.895Z,46.10
2018-03-11T11:54:13.496Z,46.22
2018-03-11T11:56:42.005Z,46.06
2018-03-11T11:59:09.604Z,45.52
2018-03-11T12:01:37.234Z,46.53
2018-03-11T12:04:04.840Z,46.48
2018-03-11T12:06:32.449Z,46.58
2018-03-11T12:09:00.060Z,46.47
2018-03-11T12:11:27.648Z,46.16
2018-03-11T12:13:55.260Z,46.59
2018-03-11T12:16:24.573Z,47.38
2018-03-11T12:18:52.212Z,46.78
2018-03-11T12:21:19.796Z,46.46
2018-03-11T12:23:47.388Z,46.32
2018-03-11T12:26:15.011Z,46.68
2018-03-11T12:28:42.607Z,47.08
2018-03-11T12:31:10.239Z,46.90
2018-03-11T12:33:37.833Z,46.58
2018-03-11T12:36:05.647Z,46.36
2018-03-11T12:38:33.238Z,45.55
2018-03-11T12:41:00.878Z,44.95
2018-03-11T12:43:28.464Z,44.08
2018-03-11T12:45:56.052Z,42.86
2018-03-11T12:48:23.891Z,41.99
2018-03-11T12:50:51.479Z,41.39
2018-03-11T12:53:19.432Z,40.23
2018-03-11T12:55:47.024Z,38.15
2018-03-11T12:58:14.613Z,36.67
2018-03-11T13:00:42.222Z,37.18
2018-03-11T13:03:09.830Z,37.27
2018-03-11T13:05:37.443Z,38.14
2018-03-11T13:08:05.052Z,37.52
2018-03-11T13:10:32.904Z,37.72
2018-03-11T13:13:00.495Z,38.91
2018-03-11T13:15:28.097Z,39.93
2018-03-11T13:17:55.709Z,40.79
2018-03-11T13:20:35.103Z,41.75
2018-03-11T13:23:02.733Z,41.81
2018-03-11T13:25:30.336Z,43.34
2018-03-11T13:31:06.025Z,41.98
2018-03-11T13:33:45.404Z,42.40
2018-03-11T13:36:13.003Z,42.87
2018-03-11T13:38:52.531Z,42.51
2018-03-11T13:41:20.132Z,41.89
2018-03-11T13:43:47.726Z,41.13
2018-03-11T13:46:27.104Z,40.51
2018-03-11T13:48:54.704Z,39.48
2018-03-11T13:51:33.987Z,38.94
2018-03-11T13:54:01.597Z,38.86
2018-03-11T13:56:29.225Z,37.89
2018-03-11T13:58:56.828Z,37.85
2018-03-11T14:01:24.443Z,38.31
2018-03-11T14:03:52.034Z,39.17
2018-03-11T14:06:19.639Z,38.87
2018-03-11T14:08:47.232Z,41.06
2018-03-11T14:11:14.870Z,39.42
2018-03-11T14:13:42.555Z,39.58
2018-03-11T14:16:10.317Z,39.71
2018-03-11T14:18:37.926Z,39.54
2018-03-11T14:21:09.895Z,41.01
2018-03-11T14:23:42.800Z,40.43
2018-03-11T14:26:21.154Z,39.38
2018-03-11T14:28:49.483Z,39.67
2018-03-11T14:31:17.084Z,39.55
2018-03-11T14:33:44.667Z,39.80
2018-03-11T14:36:12.288Z,39.83
2018-03-11T14:38:39.885Z,39.76
2018-03-11T14:41:07.516Z,40.28
2018-03-11T14:43:35.113Z,40.97
2018-03-11T14:46:03.015Z,41.31
2018-03-11T14:48:30.599Z,41.24
2018-03-11T14:50:58.202Z,41.82
2018-03-11T14:53:25.824Z,42.51
2018-03-11T14:55:53.412Z,42.25
2018-03-11T14:58:21.038Z,42.16
2018-03-11T15:00:48.795Z,41.74
2018-03-11T15:03:16.436Z,42.25
2018-03-11T15:05:44.036Z,42.75
2018-03-11T15:08:15.675Z,42.35
2018-03-11T15:10:43.290Z,42.49
2018-03-11T15:13:10.894Z,43.25
2018-03-11T15:15:38.510Z,43.24
2018-03-11T15:18:06.118Z,43.15
2018-03-11T15:20:33.933Z,43.44
2018-03-11T15:23:01.520Z,43.23
2018-03-11T15:25:29.108Z,44.05
2018-03-11T15:27:56.747Z,45.01
2018-03-11T15:30:24.381Z,45.04
2018-03-11T15:32:52.141Z,44.73
2018-03-11T15:35:19.745Z,45.53
2018-03-11T15:37:47.526Z,45.13
2018-03-11T15:40:15.148Z,46.13
2018-03-11T15:42:42.754Z,45.83
2018-03-11T15:45:10.392Z,46.29
2018-03-11T15:47:37.982Z,46.39
2018-03-11T15:50:05.605Z,46.54
2018-03-11T15:52:33.209Z,46.60
2018-03-11T15:55:00.955Z,46.76
2018-03-11T15:57:28.550Z,46.99
2018-03-11T15:59:56.161Z,47.18
2018-03-11T16:02:23.789Z,47.33
2018-03-11T16:04:51.400Z,47.49
2018-03-11T16:07:19.050Z,47.70
2018-03-11T16:09:46.657Z,47.84
2018-03-11T16:12:14.268Z,48.42
2018-03-11T16:14:41.877Z,48.22
2018-03-11T16:17:09.492Z,48.42
2018-03-11T16:19:37.112Z,48.58
2018-03-11T16:22:04.704Z,48.76
2018-03-11T16:24:39.616Z,48.90
2018-03-11T16:27:00.161Z,48.81
2018-03-11T16:29:27.812Z,49.10
2018-03-11T16:31:55.440Z,49.35
2018-03-11T16:34:23.161Z,49.39
2018-03-11T16:36:50.855Z,49.45
2018-03-11T16:39:18.445Z,49.59
2018-03-11T16:41:46.080Z,49.82
2018-03-11T16:44:13.682Z,50.31
2018-03-11T16:46:41.280Z,50.39
2018-03-11T16:49:08.891Z,50.86
2018-03-11T16:51:36.487Z,50.57
2018-03-11T16:54:04.179Z,50.79
2018-03-11T16:56:31.773Z,51.35
2018-03-11T16:58:59.836Z,51.29
2018-03-11T17:01:27.425Z,51.07
2018-03-11T17:03:55.013Z,51.20
2018-03-11T17:06:22.621Z,50.86
2018-03-11T17:08:50.251Z,50.77
2018-03-11T17:11:17.876Z,50.76
2018-03-11T17:13:45.517Z,50.94
2018-03-11T17:16:13.384Z,51.83
2018-03-11T17:18:41.057Z,51.51
2018-03-11T17:21:08.646Z,51.61
2018-03-11T17:23:36.261Z,51.42
2018-03-11T17:26:03.890Z,51.81
2018-03-11T17:28:31.512Z,52.60
2018-03-11T17:30:59.126Z,51.92
2018-03-11T17:33:26.836Z,52.15
2018-03-11T17:35:54.446Z,52.57
2018-03-11T17:38:22.043Z,52.57
2018-03-11T17:40:49.652Z,52.67
2018-03-11T17:43:17.263Z,52.65
2018-03-11T17:45:44.888Z,52.86
2018-03-11T17:48:12.483Z,52.64
2018-03-11T17:50:40.409Z,52.71
2018-03-11T17:53:08.052Z,52.98
2018-03-11T17:55:36.169Z,52.88
2018-03-11T17:58:03.771Z,52.42
2018-03-11T18:00:31.371Z,52.80
2018-03-11T18:02:59.020Z,53.38
2018-03-11T18:05:26.620Z,54.01
2018-03-11T18:07:54.275Z,54.49
2018-03-11T18:10:21.863Z,54.56
2018-03-11T18:12:49.818Z,54.46
2018-03-11T18:15:17.445Z,54.33
2018-03-11T18:17:45.354Z,54.77
2018-03-11T18:20:12.972Z,55.53
2018-03-11T18:22:40.564Z,54.87
2018-03-11T18:25:08.189Z,55.39
2018-03-11T18:27:35.791Z,55.43
2018-03-11T18:30:03.394Z,55.32
2018-03-11T18:32:31.004Z,55.52
2018-03-11T18:34:58.587Z,55.67
2018-03-11T18:37:26.231Z,55.49
2018-03-11T18:39:53.822Z,56.09
2018-03-11T18:42:21.451Z,56.27
2018-03-11T18:44:49.043Z,56.38
2018-03-11T18:47:16.645Z,56.33
2018-03-11T18:49:44.263Z,57.14
2018-03-11T18:52:11.866Z,57.34
2018-03-11T18:54:39.508Z,56.81
2018-03-11T18:57:07.115Z,56.76
2018-03-11T18:59:34.754Z,57.25
2018-03-11T19:02:02.363Z,57.18
2018-03-11T19:04:29.956Z,57.13
2018-03-11T19:06:57.577Z,57.73
2018-03-11T19:09:25.167Z,57.77
2018-03-11T19:11:52.781Z,57.74
2018-03-11T19:14:20.392Z,58.01
2018-03-11T19:16:47.987Z,57.22
2018-03-11T19:19:15.611Z,57.36
2018-03-11T19:21:43.211Z,58.31
2018-03-11T19:24:10.824Z,58.19
2018-03-11T19:26:38.421Z,58.16
2018-03-11T19:29:06.047Z,58.23
2018-03-11T19:31:33.720Z,58.46
2018-03-11T19:34:01.349Z,58.70
2018-03-11T19:36:28.944Z,59.11
2018-03-11T19:38:56.733Z,59.00
2018-03-11T19:41:24.354Z,59.26
2018-03-11T19:43:51.947Z,58.90
2018-03-11T19:46:19.557Z,59.30
2018-03-11T19:48:47.261Z,59.33
2018-03-11T19:51:15.173Z,59.33
2018-03-11T19:53:42.769Z,59.37
2018-03-11T19:56:10.429Z,59.60
2018-03-11T19:58:38.037Z,59.89
2018-03-11T20:01:05.656Z,60.00
2018-03-11T20:03:33.278Z,60.19
2018-03-11T20:06:00.888Z,60.35
2018-03-11T20:08:28.511Z,60.38
2018-03-11T20:10:56.108Z,60.31
2018-03-11T20:13:23.838Z,60.84
2018-03-11T20:15:51.438Z,60.79
2018-03-11T20:18:19.039Z,60.27
2018-03-11T20:20:46.653Z,60.34
2018-03-11T20:23:14.272Z,59.86
2018-03-11T20:25:41.889Z,60.46
2018-03-11T20:28:09.482Z,61.05
2018-03-11T20:30:37.175Z,61.46
2018-03-11T20:33:04.930Z,61.22
2018-03-11T20:35:32.527Z,60.22
2018-03-11T20:38:00.156Z,59.89
2018-03-11T20:40:27.786Z,60.50
2018-03-11T20:42:55.395Z,60.78
2018-03-11T20:45:23.022Z,61.33
2018-03-11T20:47:51.184Z,61.72
2018-03-11T20:50:18.803Z,62.30
2018-03-11T20:52:46.434Z,62.08
2018-03-11T20:55:14.371Z,62.10
2018-03-11T20:57:41.968Z,62.06
2018-03-11T21:00:09.564Z,62.05
2018-03-11T21:02:37.183Z,62.08
2018-03-11T21:05:04.787Z,62.41
2018-03-11T21:07:32.423Z,62.20
2018-03-11T21:10:00.039Z,61.48
2018-03-11T21:12:27.703Z,62.15
2018-03-11T21:14:55.299Z,61.58
2018-03-11T21:17:22.894Z,60.67
2018-03-11T21:19:50.520Z,61.57
2018-03-11T21:22:18.132Z,61.49
2018-03-11T21:24:45.756Z,61.56
2018-03-11T21:27:13.470Z,61.23
2018-03-11T21:29:41.224Z,61.43
2018-03-11T21:32:08.817Z,61.66
2018-03-11T21:34:36.429Z,62.73
2018-03-11T21:37:04.633Z,63.45
2018-03-11T21:39:32.236Z,64.09
2018-03-11T21:41:59.864Z,64.10
2018-03-11T21:44:27.467Z,63.86
2018-03-11T21:46:55.135Z,64.47
2018-03-11T21:49:22.745Z,64.83
2018-03-11T21:51:50.342Z,64.82
2018-03-11T21:54:17.959Z,64.68
2018-03-11T21:56:45.562Z,64.58
2018-03-11T21:59:13.184Z,64.59
2018-03-11T22:01:40.784Z,64.68
2018-03-11T22:04:08.608Z,64.83
2018-03-11T22:06:36.206Z,64.83
2018-03-11T22:09:03.815Z,64.93
2018-03-11T22:11:31.425Z,65.07
2018-03-11T22:13:59.036Z,65.05
2018-03-11T22:16:26.657Z,64.99
2018-03-11T22:18:54.248Z,65.01
2018-03-11T22:21:22.151Z,64.84
2018-03-11T22:23:49.744Z,65.01
2018-03-11T22:26:18.453Z,65.07
2018-03-11T22:28:49.595Z,65.89
2018-03-11T22:31:17.185Z,66.40
2018-03-11T22:33:44.798Z,66.24
2018-03-11T22:36:12.399Z,65.76
2018-03-11T22:38:40.180Z,65.60
2018-03-11T22:41:07.785Z,65.46
2018-03-11T22:43:35.378Z,65.64
2018-03-11T22:46:02.998Z,65.71
2018-03-11T22:48:30.580Z,65.48
2018-03-11T22:50:58.206Z,65.57
2018-03-11T22:53:25.880Z,65.71
2018-03-11T22:55:53.458Z,65.79
2018-03-11T22:58:21.061Z,64.95
2018-03-11T23:00:48.802Z,64.76
2018-03-11T23:03:16.421Z,64.67
2018-03-11T23:05:44.020Z,65.77
2018-03-11T23:08:11.642Z,65.93
2018-03-11T23:10:39.241Z,65.85
2018-03-11T23:13:06.896Z,66.00
2018-03-11T23:15:34.498Z,64.49
2018-03-11T23:18:02.087Z,64.20
2018-03-11T23:20:29.706Z,63.88
2018-03-11T23:22:57.306Z,64.62
2018-03-11T23:25:24.936Z,64.00
2018-03-11T23:27:52.524Z,64.80
2018-03-11T23:30:20.464Z,65.19
2018-03-11T23:32:48.052Z,65.32
2018-03-11T23:35:15.655Z,64.16
2018-03-11T23:37:43.269Z,63.81
2018-03-11T23:40:10.873Z,64.20
2018-03-11T23:42:38.505Z,64.22
2018-03-11T23:45:06.101Z,64.46
2018-03-11T23:47:34.107Z,64.67
2018-03-11T23:50:01.713Z,64.92
2018-03-11T23:52:29.299Z,65.07
2018-03-11T23:54:56.939Z,64.89
2018-03-11T23:57:24.527Z,64.75
2018-03-11T23:59:52.143Z,64.76
